createdAt,value
2023-06-14T00:00:44.271Z,1.77
2023-06-14T00:05:49.308Z,1.53
2023-06-14T00:10:53.112Z,1.57
2023-06-14T00:15:56.777Z,1.50
2023-06-14T00:21:03.240Z,1.50
2023-06-14T00:26:06.846Z,1.90
2023-06-14T00:31:10.726Z,1.80
2023-06-14T00:36:15.829Z,1.70
2023-06-14T00:41:20.369Z,1.63
2023-06-14T00:46:23.961Z,1.67
2023-06-14T00:51:29.074Z,1.63
2023-06-14T00:56:33.327Z,1.53
2023-06-14T01:01:38.021Z,1.40
2023-06-14T01:06:52.711Z,1.43
2023-06-14T01:12:02.861Z,1.60
2023-06-14T01:17:17.960Z,2.03
2023-06-14T01:22:23.501Z,1.77
2023-06-14T01:27:30.282Z,1.90
2023-06-14T01:32:34.186Z,1.73
2023-06-14T01:37:39.606Z,1.50
2023-06-14T01:42:45.892Z,1.53
2023-06-14T01:47:50.087Z,1.70
2023-06-14T01:52:53.752Z,1.90
2023-06-14T01:57:59.767Z,1.83
2023-06-14T02:03:05.172Z,1.73
2023-06-14T02:08:09.170Z,1.97
2023-06-14T02:13:16.669Z,1.67
2023-06-14T02:18:20.876Z,1.63
2023-06-14T02:23:24.482Z,1.80
2023-06-14T02:28:29.886Z,1.50
2023-06-14T02:33:33.564Z,1.70
2023-06-14T02:38:37.226Z,1.60
2023-06-14T02:43:42.340Z,1.00
2023-06-14T02:48:46.283Z,1.20
2023-06-14T02:53:50.508Z,1.30
2023-06-14T02:58:56.357Z,1.17
2023-06-14T03:04:00.147Z,1.30
2023-06-14T03:09:06.639Z,1.47
2023-06-14T03:14:15.113Z,1.43
2023-06-14T03:19:20.170Z,1.13
2023-06-14T03:24:23.946Z,1.20
2023-06-14T03:29:29.341Z,1.53
2023-06-14T03:34:33.513Z,1.60
2023-06-14T03:39:37.578Z,1.50
2023-06-14T03:44:42.690Z,1.60
2023-06-14T03:49:47.209Z,1.50
2023-06-14T03:59:59.175Z,1.40
2023-06-14T04:05:05.048Z,1.57
2023-06-14T04:10:10.000Z,1.50
2023-06-14T04:15:21.405Z,1.47
2023-06-14T04:20:28.310Z,1.50
2023-06-14T04:25:33.324Z,1.40
2023-06-14T04:30:41.746Z,1.40
2023-06-14T04:35:48.516Z,1.30
2023-06-14T04:40:53.998Z,1.43
2023-06-14T04:46:02.549Z,1.60
2023-06-14T04:51:08.547Z,1.50
2023-06-14T04:56:12.215Z,1.47
2023-06-14T05:01:17.371Z,1.70
2023-06-14T05:06:21.084Z,1.20
2023-06-14T05:11:25.078Z,1.40
2023-06-14T05:16:30.382Z,1.50
2023-06-14T05:21:39.223Z,1.30
2023-06-14T05:26:45.336Z,1.50
2023-06-14T05:31:50.421Z,1.73
2023-06-14T05:36:54.008Z,1.77
2023-06-14T05:41:57.653Z,1.40
2023-06-14T05:47:02.690Z,1.90
2023-06-14T05:52:07.177Z,1.50
2023-06-14T05:57:11.673Z,1.70
2023-06-14T06:02:16.826Z,1.60
2023-06-14T06:07:20.562Z,1.30
2023-06-14T06:12:24.165Z,1.33
2023-06-14T06:17:38.806Z,1.60
2023-06-14T06:22:50.296Z,1.20
2023-06-14T06:27:54.285Z,1.20
2023-06-14T06:33:00.349Z,1.50
2023-06-14T06:38:03.975Z,1.40
2023-06-14T06:43:07.610Z,1.37
2023-06-14T06:48:20.115Z,1.30
2023-06-14T06:53:34.867Z,1.30
2023-06-14T06:58:43.891Z,1.53
2023-06-14T07:03:48.888Z,1.00
2023-06-14T07:08:52.474Z,1.00
2023-06-14T07:13:56.786Z,1.13
2023-06-14T07:19:03.565Z,0.90
2023-06-14T07:24:08.936Z,1.10
2023-06-14T07:29:12.656Z,0.90
2023-06-14T07:34:17.690Z,0.90
2023-06-14T07:39:21.731Z,1.10
2023-06-14T07:44:25.476Z,1.27
2023-06-14T07:49:30.559Z,1.37
2023-06-14T07:54:34.410Z,0.97
2023-06-14T07:59:38.080Z,0.93
2023-06-14T08:04:43.455Z,0.90
2023-06-14T08:09:47.100Z,0.80
2023-06-14T08:14:58.041Z,1.00
2023-06-14T08:20:17.862Z,1.10
2023-06-14T08:25:21.530Z,0.90
2023-06-14T08:30:25.147Z,0.97
2023-06-14T08:35:30.169Z,1.00
2023-06-14T08:40:38.948Z,0.93
2023-06-14T08:45:42.655Z,1.03
2023-06-14T08:50:49.166Z,0.90
2023-06-14T08:55:54.289Z,0.90
2023-06-14T09:00:58.321Z,0.80
2023-06-14T09:06:04.934Z,0.70
2023-06-14T09:11:08.576Z,0.60
2023-06-14T09:16:12.572Z,0.87
2023-06-14T09:21:19.637Z,0.77
2023-06-14T09:26:24.302Z,0.70
2023-06-14T09:31:32.692Z,0.60
2023-06-14T09:36:38.503Z,0.50
2023-06-14T09:41:44.333Z,0.80
2023-06-14T09:46:48.635Z,0.70
2023-06-14T09:51:56.934Z,0.63
2023-06-14T09:57:01.581Z,0.77
2023-06-14T10:02:11.947Z,1.07
2023-06-14T10:07:18.552Z,0.90
2023-06-14T10:12:22.980Z,0.77
2023-06-14T10:17:35.678Z,0.70
2023-06-14T10:22:47.666Z,0.80
2023-06-14T10:27:52.024Z,0.60
2023-06-14T10:33:09.257Z,0.87
2023-06-14T10:38:14.870Z,0.80
2023-06-14T10:43:25.662Z,0.70
2023-06-14T10:48:32.140Z,0.70
2023-06-14T10:53:44.612Z,0.90
2023-06-14T10:58:48.185Z,0.90
2023-06-14T11:03:54.556Z,0.80
2023-06-14T11:09:22.337Z,0.80
2023-06-14T11:14:26.047Z,0.70
2023-06-14T11:19:30.646Z,1.00
2023-06-14T11:24:36.458Z,0.80
2023-06-14T11:29:40.454Z,0.87
2023-06-14T11:34:47.859Z,0.60
2023-06-14T11:39:52.770Z,0.60
2023-06-14T11:45:16.173Z,0.77
2023-06-14T11:50:20.850Z,0.67
2023-06-14T11:55:27.012Z,0.80
2023-06-14T12:00:31.339Z,0.80
2023-06-14T12:05:36.281Z,0.60
2023-06-14T12:10:45.167Z,0.50
2023-06-14T12:15:56.698Z,0.80
2023-06-14T12:21:03.834Z,0.60
2023-06-14T12:26:11.729Z,0.70
2023-06-14T12:31:17.981Z,0.70
2023-06-14T12:36:22.107Z,0.70
2023-06-14T12:41:28.214Z,0.80
2023-06-14T12:46:33.244Z,0.90
2023-06-14T12:51:36.873Z,0.70
2023-06-14T12:56:42.763Z,0.83
2023-06-14T13:01:48.561Z,0.90
2023-06-14T13:06:52.240Z,0.70
2023-06-14T13:11:57.268Z,0.90
2023-06-14T13:17:01.017Z,1.00
2023-06-14T13:22:05.396Z,1.10
2023-06-14T13:27:11.391Z,1.27
2023-06-14T13:32:15.042Z,0.90
2023-06-14T13:37:18.897Z,0.97
2023-06-14T13:42:23.853Z,0.80
2023-06-14T13:47:27.611Z,1.10
2023-06-14T13:52:32.433Z,0.90
2023-06-14T13:57:43.985Z,0.77
2023-06-14T14:02:48.037Z,1.07
2023-06-14T14:07:53.292Z,1.00
2023-06-14T14:12:58.197Z,1.03
2023-06-14T14:18:02.084Z,0.90
2023-06-14T14:23:05.808Z,0.80
2023-06-14T14:28:12.265Z,0.70
2023-06-14T14:33:17.839Z,0.77
2023-06-14T14:38:22.799Z,1.00
2023-06-14T14:43:27.946Z,0.80
2023-06-14T14:48:31.569Z,0.90
2023-06-14T14:53:35.141Z,0.77
2023-06-14T14:58:40.088Z,0.87
2023-06-14T15:08:53.685Z,0.83
2023-06-14T15:13:59.088Z,0.70
2023-06-14T15:19:02.701Z,0.80
2023-06-14T15:24:06.853Z,0.70
2023-06-14T15:29:11.888Z,0.83
2023-06-14T15:34:15.523Z,0.97
2023-06-14T15:39:19.137Z,0.83
2023-06-14T15:44:24.090Z,0.80
2023-06-14T15:49:27.689Z,0.63
2023-06-14T15:54:31.282Z,0.90
2023-06-14T15:59:36.304Z,0.70
2023-06-14T16:04:39.955Z,0.77
2023-06-14T16:09:43.614Z,0.87
2023-06-14T16:14:48.653Z,1.10
2023-06-14T16:19:52.285Z,0.60
2023-06-14T16:24:55.961Z,0.60
2023-06-14T16:30:01.032Z,0.90
2023-06-14T16:35:04.960Z,1.10
2023-06-14T16:40:09.860Z,0.70
2023-06-14T16:45:14.776Z,0.70
2023-06-14T16:50:18.626Z,1.00
2023-06-14T16:55:22.494Z,1.00
2023-06-14T17:00:27.828Z,1.20
2023-06-14T17:05:31.423Z,1.00
2023-06-14T17:10:35.150Z,0.80
2023-06-14T17:15:40.084Z,0.77
2023-06-14T17:20:43.739Z,0.93
2023-06-14T17:25:47.363Z,0.80
2023-06-14T17:30:52.377Z,1.33
2023-06-14T17:35:55.953Z,1.10
2023-06-14T17:41:01.452Z,0.80
2023-06-14T17:46:07.168Z,1.17
2023-06-14T17:51:10.898Z,1.20
2023-06-14T17:56:14.508Z,0.90
2023-06-14T18:01:21.836Z,0.90
2023-06-14T18:06:25.512Z,0.87
2023-06-14T18:11:31.682Z,0.90
2023-06-14T18:16:37.081Z,0.80
2023-06-14T18:21:41.011Z,0.80
2023-06-14T18:26:44.605Z,0.73
2023-06-14T18:31:49.612Z,0.50
2023-06-14T18:36:54.384Z,0.50
2023-06-14T18:42:01.177Z,0.50
2023-06-14T18:47:06.730Z,0.70
2023-06-14T18:52:11.173Z,0.60
2023-06-14T18:57:14.817Z,0.50
2023-06-14T19:02:20.070Z,0.53
2023-06-14T19:07:23.722Z,0.70
2023-06-14T19:12:27.306Z,0.53
2023-06-14T19:17:32.298Z,0.60
2023-06-14T19:22:36.765Z,0.60
2023-06-14T19:27:40.466Z,0.50
2023-06-14T19:32:45.685Z,1.00
2023-06-14T19:37:49.949Z,0.80
2023-06-14T19:42:53.497Z,0.70
2023-06-14T19:48:10.860Z,0.70
2023-06-14T19:53:22.263Z,0.90
2023-06-14T19:58:25.835Z,1.00
2023-06-14T20:03:30.774Z,0.90
2023-06-14T20:08:34.399Z,0.77
2023-06-14T20:13:38.196Z,0.70
2023-06-14T20:18:43.128Z,0.60
2023-06-14T20:23:46.769Z,0.80
2023-06-14T20:28:50.417Z,0.60
2023-06-14T20:33:55.444Z,0.60
2023-06-14T20:39:00.471Z,0.70
2023-06-14T20:44:04.150Z,0.70
2023-06-14T20:49:09.158Z,0.60
2023-06-14T20:54:13.006Z,0.80
2023-06-14T20:59:16.590Z,0.60
2023-06-14T21:04:22.298Z,0.50
2023-06-14T21:09:26.060Z,0.60
2023-06-14T21:14:29.758Z,0.50
2023-06-14T21:19:34.644Z,0.53
2023-06-14T21:24:38.305Z,0.50
2023-06-14T21:29:42.285Z,0.50
2023-06-14T21:34:47.350Z,0.50
2023-06-14T21:39:51.013Z,0.60
2023-06-14T21:44:56.544Z,0.43
2023-06-14T21:50:01.412Z,0.40
2023-06-14T21:55:05.602Z,0.60
2023-06-14T22:00:12.037Z,0.50
2023-06-14T22:05:17.241Z,0.57
2023-06-14T22:10:21.292Z,0.60
2023-06-14T22:15:25.256Z,0.40
2023-06-14T22:20:33.871Z,0.67
2023-06-14T22:25:37.508Z,0.60
2023-06-14T22:30:43.884Z,0.50
2023-06-14T22:35:48.840Z,0.40
2023-06-14T22:40:53.349Z,0.50
2023-06-14T22:45:58.241Z,0.60
2023-06-14T22:51:04.190Z,0.50
2023-06-14T22:56:08.624Z,0.60
2023-06-14T23:01:15.578Z,0.50
2023-06-14T23:06:25.942Z,0.70
2023-06-14T23:11:29.616Z,0.60
2023-06-14T23:16:35.545Z,0.50
2023-06-14T23:21:40.946Z,0.80
2023-06-14T23:26:46.559Z,0.60
2023-06-14T23:31:50.414Z,0.60
2023-06-14T23:36:55.575Z,0.50
2023-06-14T23:41:59.200Z,0.67
2023-06-14T23:47:06.817Z,0.60
2023-06-14T23:52:11.741Z,0.53
2023-06-14T23:57:19.748Z,0.60
